createdAt,value
2018-03-03T00:00:16.274Z,-3.09
2018-03-03T00:01:16.250Z,-3.33
2018-03-03T00:02:16.213Z,-3.23
2018-03-03T00:03:16.182Z,-3.25
2018-03-03T00:04:16.156Z,-3.26
2018-03-03T00:05:16.121Z,-3.15
2018-03-03T00:06:16.169Z,-3.22
2018-03-03T00:07:16.060Z,-3.15
2018-03-03T00:08:16.032Z,-3.17
2018-03-03T00:09:16.113Z,-3.23
2018-03-03T00:10:15.971Z,-3.20
2018-03-03T00:11:15.945Z,-3.15
2018-03-03T00:12:15.949Z,-3.30
2018-03-03T00:13:15.881Z,-3.29
2018-03-03T00:14:15.852Z,-3.22
2018-03-03T00:15:15.825Z,-3.19
2018-03-03T00:16:15.788Z,-3.14
2018-03-03T00:17:15.762Z,-3.12
2018-03-03T00:18:15.724Z,-3.17
2018-03-03T00:19:15.698Z,-3.19
2018-03-03T00:20:15.663Z,-3.25
2018-03-03T00:21:15.635Z,-3.23
2018-03-03T00:22:15.601Z,-3.41
2018-03-03T00:23:15.570Z,-3.29
2018-03-03T00:24:15.544Z,-3.38
2018-03-03T00:25:15.511Z,-3.30
2018-03-03T00:26:15.495Z,-3.37
2018-03-03T00:27:15.458Z,-3.20
2018-03-03T00:28:15.420Z,-3.38
2018-03-03T00:29:15.391Z,-3.32
2018-03-03T00:30:15.363Z,-3.38
2018-03-03T00:31:15.326Z,-3.36
2018-03-03T00:32:15.294Z,-3.36
2018-03-03T00:33:15.266Z,-3.43
2018-03-03T00:34:15.234Z,-3.41
2018-03-03T00:35:15.207Z,-3.40
2018-03-03T00:36:15.179Z,-3.41
2018-03-03T00:37:15.142Z,-3.38
2018-03-03T00:38:15.122Z,-3.38
2018-03-03T00:39:15.080Z,-3.38
2018-03-03T00:40:15.073Z,-3.55
2018-03-03T00:41:15.019Z,-3.69
2018-03-03T00:42:14.989Z,-3.65
2018-03-03T00:43:14.958Z,-3.59
2018-03-03T00:44:14.922Z,-3.55
2018-03-03T00:45:14.892Z,-3.59
2018-03-03T00:46:14.864Z,-3.61
2018-03-03T00:47:14.943Z,-3.59
2018-03-03T00:48:14.801Z,-3.62
2018-03-03T00:49:14.774Z,-3.59
2018-03-03T00:50:14.749Z,-3.66
2018-03-03T00:51:14.707Z,-3.69
2018-03-03T00:52:14.678Z,-3.69
2018-03-03T00:53:14.675Z,-3.77
2018-03-03T00:54:14.614Z,-3.75
2018-03-03T00:55:14.589Z,-3.69
2018-03-03T00:56:14.556Z,-3.78
2018-03-03T00:57:14.522Z,-3.71
2018-03-03T00:58:14.493Z,-3.65
2018-03-03T00:59:14.461Z,-3.71
2018-03-03T01:00:14.426Z,-3.68
2018-03-03T01:01:14.404Z,-3.81
2018-03-03T01:02:14.387Z,-3.77
2018-03-03T01:03:14.336Z,-3.78
2018-03-03T01:04:14.305Z,-3.80
2018-03-03T01:05:14.276Z,-3.85
2018-03-03T01:06:14.327Z,-3.84
2018-03-03T01:07:14.209Z,-3.87
2018-03-03T01:08:14.176Z,-3.83
2018-03-03T01:09:14.160Z,-3.88
2018-03-03T01:10:14.124Z,-3.88
2018-03-03T01:11:14.087Z,-3.83
2018-03-03T01:12:14.074Z,-3.75
2018-03-03T01:13:14.026Z,-3.87
2018-03-03T01:14:13.999Z,-3.88
2018-03-03T01:15:14.036Z,-3.98
2018-03-03T01:16:13.930Z,-3.84
2018-03-03T01:17:13.901Z,-3.90
2018-03-03T01:18:13.870Z,-3.85
2018-03-03T01:19:13.854Z,-3.80
2018-03-03T01:20:13.802Z,-3.87
2018-03-03T01:21:13.772Z,-3.91
2018-03-03T01:22:13.798Z,-3.98
2018-03-03T01:23:13.713Z,-3.94
2018-03-03T01:24:13.679Z,-4.05
2018-03-03T01:25:13.696Z,-3.98
2018-03-03T01:26:13.618Z,-3.94
2018-03-03T01:27:13.585Z,-3.99
2018-03-03T01:28:13.565Z,-4.02
2018-03-03T01:29:13.522Z,-3.99
2018-03-03T01:30:13.499Z,-4.01
2018-03-03T01:31:13.462Z,-4.12
2018-03-03T01:32:13.428Z,-4.13
2018-03-03T01:33:13.401Z,-4.06
2018-03-03T01:34:13.627Z,-4.02
2018-03-03T01:35:13.333Z,-4.05
2018-03-03T01:36:13.303Z,-3.98
2018-03-03T01:37:13.271Z,-4.04
2018-03-03T01:38:13.241Z,-4.02
2018-03-03T01:39:13.220Z,-4.14
2018-03-03T01:40:13.183Z,-4.13
2018-03-03T01:41:13.144Z,-4.14
2018-03-03T01:42:13.121Z,-4.08
2018-03-03T01:43:13.089Z,-4.08
2018-03-03T01:44:13.058Z,-4.05
2018-03-03T01:45:13.019Z,-4.13
2018-03-03T01:46:12.989Z,-4.14
2018-03-03T01:47:13.036Z,-4.14
2018-03-03T01:48:12.939Z,-4.14
2018-03-03T01:49:12.897Z,-4.17
2018-03-03T01:50:12.873Z,-4.12
2018-03-03T01:51:12.835Z,-4.12
2018-03-03T01:52:12.801Z,-4.14
2018-03-03T01:53:12.772Z,-4.13
2018-03-03T01:54:12.766Z,-4.19
2018-03-03T01:55:12.708Z,-4.26
2018-03-03T01:56:12.684Z,-4.30
2018-03-03T01:57:12.649Z,-4.20
2018-03-03T01:58:12.618Z,-4.27
2018-03-03T01:59:12.584Z,-4.26
2018-03-03T02:00:12.550Z,-4.26
2018-03-03T02:01:12.521Z,-4.22
2018-03-03T02:02:12.491Z,-4.27
2018-03-03T02:03:12.462Z,-4.16
2018-03-03T02:04:12.429Z,-4.23
2018-03-03T02:05:12.398Z,-4.23
2018-03-03T02:06:12.366Z,-4.30
2018-03-03T02:07:12.332Z,-4.24
2018-03-03T02:08:12.314Z,-4.26
2018-03-03T02:09:12.272Z,-4.26
2018-03-03T02:10:12.239Z,-4.22
2018-03-03T02:11:12.218Z,-4.26
2018-03-03T02:12:12.176Z,-4.26
2018-03-03T02:13:12.146Z,-4.34
2018-03-03T02:14:12.117Z,-4.27
2018-03-03T02:15:12.091Z,-4.33
2018-03-03T02:16:12.054Z,-4.35
2018-03-03T02:17:12.019Z,-4.40
2018-03-03T02:18:11.989Z,-4.41
2018-03-03T02:19:11.955Z,-4.44
2018-03-03T02:20:11.924Z,-4.45
2018-03-03T02:21:11.896Z,-4.38
2018-03-03T02:22:11.865Z,-4.41
2018-03-03T02:23:11.830Z,-4.38
2018-03-03T02:24:11.808Z,-4.34
2018-03-03T02:25:11.770Z,-4.35
2018-03-03T02:26:11.741Z,-4.35
2018-03-03T02:27:11.761Z,-4.31
2018-03-03T02:28:11.678Z,-4.30
2018-03-03T02:29:11.642Z,-4.33
2018-03-03T02:30:11.615Z,-4.38
2018-03-03T02:31:11.581Z,-4.37
2018-03-03T02:32:11.553Z,-4.40
2018-03-03T02:33:11.523Z,-4.34
2018-03-03T02:34:11.487Z,-4.34
2018-03-03T02:35:11.458Z,-4.35
2018-03-03T02:36:11.423Z,-4.37
2018-03-03T02:37:11.402Z,-4.38
2018-03-03T02:38:11.364Z,-4.42
2018-03-03T02:39:11.326Z,-4.34
2018-03-03T02:40:11.299Z,-4.34
2018-03-03T02:41:11.269Z,-4.24
2018-03-03T02:42:11.257Z,-4.31
2018-03-03T02:43:11.206Z,-4.23
2018-03-03T02:44:11.171Z,-4.30
2018-03-03T02:45:11.208Z,-4.33
2018-03-03T02:46:11.120Z,-4.33
2018-03-03T02:47:11.077Z,-4.26
2018-03-03T02:48:11.060Z,-4.37
2018-03-03T02:49:11.014Z,-4.27
2018-03-03T02:50:10.985Z,-4.31
2018-03-03T02:51:10.962Z,-4.20
2018-03-03T02:52:10.921Z,-4.20
2018-03-03T02:53:10.896Z,-4.16
2018-03-03T02:54:10.856Z,-4.05
2018-03-03T02:55:10.822Z,-4.17
2018-03-03T02:56:10.796Z,-4.20
2018-03-03T02:57:10.759Z,-4.12
2018-03-03T02:58:10.731Z,-4.12
2018-03-03T02:59:10.700Z,-4.17
2018-03-03T03:00:10.671Z,-4.30
2018-03-03T03:01:10.636Z,-4.20
2018-03-03T03:02:10.614Z,-4.14
2018-03-03T03:03:10.584Z,-4.13
2018-03-03T03:04:10.560Z,-4.12
2018-03-03T03:05:10.510Z,-4.22
2018-03-03T03:06:10.481Z,-4.17
2018-03-03T03:07:10.450Z,-4.24
2018-03-03T03:08:10.420Z,-4.20
2018-03-03T03:09:10.384Z,-4.13
2018-03-03T03:10:10.355Z,-4.13
2018-03-03T03:11:10.354Z,-4.08
2018-03-03T03:12:10.300Z,-4.12
2018-03-03T03:13:10.259Z,-3.96
2018-03-03T03:14:10.272Z,-4.06
2018-03-03T03:15:10.194Z,-4.09
2018-03-03T03:16:10.164Z,-4.05
2018-03-03T03:17:10.236Z,-3.91
2018-03-03T03:18:10.101Z,-3.95
2018-03-03T03:19:10.070Z,-3.98
2018-03-03T03:20:10.049Z,-4.06
2018-03-03T03:21:10.009Z,-4.08
2018-03-03T03:22:09.978Z,-4.02
2018-03-03T03:23:09.943Z,-4.08
2018-03-03T03:24:09.915Z,-4.05
2018-03-03T03:25:09.890Z,-4.01
2018-03-03T03:26:09.849Z,-3.98
2018-03-03T03:27:09.816Z,-4.04
2018-03-03T03:28:09.787Z,-3.91
2018-03-03T03:29:09.758Z,-3.94
2018-03-03T03:30:09.722Z,-3.99
2018-03-03T03:31:09.700Z,-3.91
2018-03-03T03:32:09.664Z,-3.96
2018-03-03T03:33:09.628Z,-3.99
2018-03-03T03:34:09.613Z,-3.88
2018-03-03T03:35:09.573Z,-3.96
2018-03-03T03:36:09.539Z,-3.94
2018-03-03T03:37:09.500Z,-3.84
2018-03-03T03:38:09.467Z,-3.85
2018-03-03T03:39:09.438Z,-3.83
2018-03-03T03:40:09.406Z,-3.84
2018-03-03T03:41:09.374Z,-3.75
2018-03-03T03:42:09.352Z,-3.68
2018-03-03T03:43:09.320Z,-3.68
2018-03-03T03:44:09.285Z,-3.84
2018-03-03T03:45:09.247Z,-3.85
2018-03-03T03:46:09.216Z,-3.87
2018-03-03T03:47:09.187Z,-3.81
2018-03-03T03:48:09.155Z,-3.75
2018-03-03T03:49:09.134Z,-3.88
2018-03-03T03:50:09.094Z,-3.87
2018-03-03T03:51:09.064Z,-3.90
2018-03-03T03:52:09.030Z,-3.77
2018-03-03T03:53:09.129Z,-3.69
2018-03-03T03:54:08.966Z,-3.65
2018-03-03T03:55:08.942Z,-3.74
2018-03-03T03:56:09.005Z,-3.69
2018-03-03T03:57:08.876Z,-3.66
2018-03-03T03:58:08.847Z,-3.59
2018-03-03T03:59:08.852Z,-3.46
2018-03-03T04:00:08.777Z,-3.50
2018-03-03T04:01:08.747Z,-3.58
2018-03-03T04:02:08.717Z,-3.64
2018-03-03T04:03:08.687Z,-3.71
2018-03-03T04:04:08.692Z,-3.69
2018-03-03T04:05:08.620Z,-3.75
2018-03-03T04:06:08.607Z,-3.71
2018-03-03T04:07:08.561Z,-3.83
2018-03-03T04:08:08.576Z,-3.81
2018-03-03T04:09:08.502Z,-3.69
2018-03-03T04:10:08.473Z,-3.68
2018-03-03T04:11:08.536Z,-3.74
2018-03-03T04:12:08.403Z,-3.68
2018-03-03T04:13:08.380Z,-3.66
2018-03-03T04:14:08.343Z,-3.74
2018-03-03T04:15:08.310Z,-3.74
2018-03-03T04:16:08.279Z,-3.84
2018-03-03T04:17:08.249Z,-3.68
2018-03-03T04:18:08.288Z,-3.83
2018-03-03T04:19:08.184Z,-3.87
2018-03-03T04:20:08.154Z,-3.75
2018-03-03T04:21:08.124Z,-3.65
2018-03-03T04:22:08.092Z,-3.59
2018-03-03T04:23:08.059Z,-3.56
2018-03-03T04:24:08.030Z,-3.78
2018-03-03T04:25:08.005Z,-3.78
2018-03-03T04:26:07.971Z,-3.80
2018-03-03T04:27:07.939Z,-3.81
2018-03-03T04:28:07.909Z,-3.68
2018-03-03T04:29:07.875Z,-3.85
2018-03-03T04:30:07.852Z,-3.85
2018-03-03T04:31:07.811Z,-3.74
2018-03-03T04:32:07.778Z,-3.65
2018-03-03T04:33:07.748Z,-3.75
2018-03-03T04:34:07.860Z,-3.71
2018-03-03T04:35:07.699Z,-3.84
2018-03-03T04:36:07.659Z,-3.88
2018-03-03T04:37:07.879Z,-3.74
2018-03-03T04:38:07.592Z,-3.80
2018-03-03T04:39:07.564Z,-3.69
2018-03-03T04:40:07.531Z,-3.69
2018-03-03T04:41:07.505Z,-3.68
2018-03-03T04:42:07.467Z,-3.58
2018-03-03T04:43:07.436Z,-3.44
2018-03-03T04:44:07.410Z,-3.43
2018-03-03T04:45:07.376Z,-3.62
2018-03-03T04:46:07.352Z,-3.61
2018-03-03T04:47:07.417Z,-3.64
2018-03-03T04:48:07.281Z,-3.64
2018-03-03T04:49:07.259Z,-3.66
2018-03-03T04:50:07.230Z,-3.74
2018-03-03T04:51:07.190Z,-3.62
2018-03-03T04:52:07.158Z,-3.66
2018-03-03T04:53:07.128Z,-3.61
2018-03-03T04:54:07.095Z,-3.69
2018-03-03T04:55:07.064Z,-3.59
2018-03-03T04:56:07.035Z,-3.55
2018-03-03T04:57:07.006Z,-3.58
2018-03-03T04:58:06.976Z,-3.43
2018-03-03T04:59:06.946Z,-3.56
2018-03-03T05:00:06.909Z,-3.51
2018-03-03T05:01:06.879Z,-3.66
2018-03-03T05:02:06.850Z,-3.84
2018-03-03T05:03:06.827Z,-3.78
2018-03-03T05:04:06.787Z,-3.81
2018-03-03T05:05:06.758Z,-3.90
2018-03-03T05:06:06.733Z,-3.90
2018-03-03T05:07:06.695Z,-3.66
2018-03-03T05:08:06.663Z,-3.69
2018-03-03T05:09:06.634Z,-3.69
2018-03-03T05:10:06.602Z,-3.66
2018-03-03T05:11:06.571Z,-3.71
2018-03-03T05:12:06.538Z,-3.66
2018-03-03T05:13:06.508Z,-3.62
2018-03-03T05:14:06.478Z,-3.53
2018-03-03T05:15:06.446Z,-3.53
2018-03-03T05:16:06.415Z,-3.58
2018-03-03T05:17:06.389Z,-3.61
2018-03-03T05:18:06.355Z,-3.56
2018-03-03T05:19:06.388Z,-3.66
2018-03-03T05:20:06.294Z,-3.69
2018-03-03T05:21:06.280Z,-3.65
2018-03-03T05:22:06.342Z,-3.68
2018-03-03T05:23:06.230Z,-3.71
2018-03-03T05:24:06.165Z,-3.84
2018-03-03T05:25:06.143Z,-3.71
2018-03-03T05:26:06.105Z,-3.61
2018-03-03T05:27:06.072Z,-3.56
2018-03-03T05:28:06.042Z,-3.62
2018-03-03T05:29:06.013Z,-3.59
2018-03-03T05:30:05.982Z,-3.55
2018-03-03T05:31:05.949Z,-3.58
2018-03-03T05:32:05.979Z,-3.59
2018-03-03T05:33:05.893Z,-3.58
2018-03-03T05:34:05.859Z,-3.58
2018-03-03T05:35:05.829Z,-3.51
2018-03-03T05:36:05.798Z,-3.53
2018-03-03T05:37:05.773Z,-3.59
2018-03-03T05:38:05.742Z,-3.55
2018-03-03T05:39:05.705Z,-3.64
2018-03-03T05:40:05.690Z,-3.64
2018-03-03T05:41:05.642Z,-3.74
2018-03-03T05:42:05.622Z,-3.80
2018-03-03T05:43:05.580Z,-3.74
2018-03-03T05:44:05.559Z,-3.64
2018-03-03T05:45:05.528Z,-3.66
2018-03-03T05:46:05.494Z,-3.66
2018-03-03T05:47:05.465Z,-3.64
2018-03-03T05:48:05.428Z,-3.69
2018-03-03T05:49:05.398Z,-3.68
2018-03-03T05:50:05.368Z,-3.78
2018-03-03T05:51:05.338Z,-3.75
2018-03-03T05:52:05.302Z,-3.81
2018-03-03T05:53:05.277Z,-3.84
2018-03-03T05:54:05.251Z,-3.84
2018-03-03T05:55:05.227Z,-3.68
2018-03-03T05:56:05.182Z,-3.65
2018-03-03T05:57:05.149Z,-3.69
2018-03-03T05:58:05.120Z,-3.74
2018-03-03T05:59:05.089Z,-3.74
2018-03-03T06:00:05.067Z,-3.75
2018-03-03T06:01:05.025Z,-3.81
2018-03-03T06:02:04.996Z,-3.87
2018-03-03T06:03:04.967Z,-3.83
2018-03-03T06:04:04.933Z,-3.87
2018-03-03T06:05:04.905Z,-3.85
2018-03-03T06:06:04.883Z,-3.90
2018-03-03T06:07:04.840Z,-3.99
2018-03-03T06:08:04.810Z,-4.01
2018-03-03T06:09:04.783Z,-3.95
2018-03-03T06:10:04.750Z,-3.90
2018-03-03T06:11:04.719Z,-4.05
2018-03-03T06:12:04.688Z,-4.09
2018-03-03T06:13:04.710Z,-4.02
2018-03-03T06:14:04.626Z,-4.05
2018-03-03T06:15:04.593Z,-4.06
2018-03-03T06:16:04.565Z,-4.05
2018-03-03T06:17:04.534Z,-4.04
2018-03-03T06:18:04.504Z,-4.06
2018-03-03T06:19:04.474Z,-4.06
2018-03-03T06:20:04.567Z,-4.04
2018-03-03T06:21:04.435Z,-4.01
2018-03-03T06:22:04.375Z,-3.94
2018-03-03T06:23:04.350Z,-3.99
2018-03-03T06:24:04.315Z,-3.98
2018-03-03T06:25:04.284Z,-3.99
2018-03-03T06:26:04.253Z,-4.02
2018-03-03T06:27:04.223Z,-4.02
2018-03-03T06:28:04.192Z,-4.13
2018-03-03T06:29:04.175Z,-4.05
2018-03-03T06:30:04.133Z,-4.08
2018-03-03T06:31:04.095Z,-4.16
2018-03-03T06:32:04.064Z,-3.95
2018-03-03T06:33:04.034Z,-3.98
2018-03-03T06:34:04.004Z,-4.06
2018-03-03T06:35:03.973Z,-3.95
2018-03-03T06:36:03.943Z,-4.02
2018-03-03T06:37:03.912Z,-4.12
2018-03-03T06:38:03.888Z,-4.05
2018-03-03T06:39:03.846Z,-3.98
2018-03-03T06:40:03.825Z,-4.04
2018-03-03T06:41:03.785Z,-4.05
2018-03-03T06:42:03.755Z,-4.05
2018-03-03T06:43:03.850Z,-4.04
2018-03-03T06:44:03.690Z,-3.95
2018-03-03T06:45:03.663Z,-3.94
2018-03-03T06:46:03.640Z,-3.99
2018-03-03T06:47:03.600Z,-3.95
2018-03-03T06:48:03.567Z,-4.09
2018-03-03T06:49:03.538Z,-4.08
2018-03-03T06:50:03.509Z,-4.05
2018-03-03T06:51:03.480Z,-4.05
2018-03-03T06:52:03.447Z,-3.98
2018-03-03T06:53:03.411Z,-3.98
2018-03-03T06:54:03.380Z,-3.85
2018-03-03T06:55:03.354Z,-3.84
2018-03-03T06:56:03.318Z,-3.91
2018-03-03T06:57:03.297Z,-3.77
2018-03-03T06:58:03.257Z,-3.74
2018-03-03T06:59:03.227Z,-3.80
2018-03-03T07:00:03.198Z,-3.91
2018-03-03T07:01:03.171Z,-3.83
2018-03-03T07:02:03.132Z,-3.69
2018-03-03T07:03:03.112Z,-3.81
2018-03-03T07:04:03.072Z,-3.77
2018-03-03T07:05:03.047Z,-3.85
2018-03-03T07:06:03.012Z,-3.78
2018-03-03T07:07:02.980Z,-3.74
2018-03-03T07:08:03.049Z,-3.65
2018-03-03T07:09:02.916Z,-3.66
2018-03-03T07:10:02.887Z,-3.66
2018-03-03T07:11:02.865Z,-3.58
2018-03-03T07:12:02.827Z,-3.58
2018-03-03T07:13:02.799Z,-3.53
2018-03-03T07:14:02.767Z,-3.47
2018-03-03T07:15:02.736Z,-3.41
2018-03-03T07:16:02.701Z,-3.26
2018-03-03T07:17:02.671Z,-3.25
2018-03-03T07:18:02.640Z,-3.32
2018-03-03T07:19:02.611Z,-3.19
2018-03-03T07:20:02.577Z,-3.04
2018-03-03T07:21:02.552Z,-3.23
2018-03-03T07:22:02.518Z,-3.41
2018-03-03T07:23:02.503Z,-3.19
2018-03-03T07:24:02.583Z,-3.23
2018-03-03T07:25:02.427Z,-3.41
2018-03-03T07:26:02.397Z,-3.27
2018-03-03T07:27:02.367Z,-3.29
2018-03-03T07:28:02.353Z,-3.09
2018-03-03T07:29:02.311Z,-3.09
2018-03-03T07:30:02.288Z,-2.98
2018-03-03T07:31:02.245Z,-3.01
2018-03-03T07:32:02.239Z,-2.94
2018-03-03T07:33:02.190Z,-3.09
2018-03-03T07:34:02.158Z,-3.15
2018-03-03T07:35:02.125Z,-3.01
2018-03-03T07:36:02.095Z,-2.91
2018-03-03T07:37:02.067Z,-2.84
2018-03-03T07:38:02.033Z,-2.73
2018-03-03T07:39:02.015Z,-2.80
2018-03-03T07:40:01.976Z,-2.91
2018-03-03T07:41:01.960Z,-2.76
2018-03-03T07:42:01.924Z,-2.91
2018-03-03T07:43:01.885Z,-3.07
2018-03-03T07:44:01.853Z,-3.01
2018-03-03T07:45:01.830Z,-2.84
2018-03-03T07:46:01.792Z,-2.89
2018-03-03T07:47:01.763Z,-2.83
2018-03-03T07:48:01.733Z,-2.90
2018-03-03T07:49:01.705Z,-2.78
2018-03-03T07:50:01.685Z,-2.72
2018-03-03T07:51:01.642Z,-2.87
2018-03-03T07:52:01.612Z,-2.91
2018-03-03T07:53:01.600Z,-2.84
2018-03-03T07:54:01.570Z,-2.81
2018-03-03T07:55:01.523Z,-2.76
2018-03-03T07:56:01.491Z,-2.62
2018-03-03T07:57:01.463Z,-2.57
2018-03-03T07:58:01.442Z,-2.34
2018-03-03T07:59:01.429Z,-2.39
2018-03-03T08:00:01.370Z,-2.58
2018-03-03T08:01:01.351Z,-2.70
2018-03-03T08:02:01.323Z,-2.55
2018-03-03T08:03:01.280Z,-2.57
2018-03-03T08:04:01.301Z,-2.34
2018-03-03T08:05:01.224Z,-2.42
2018-03-03T08:06:01.193Z,-2.22
2018-03-03T08:07:01.160Z,-2.22
2018-03-03T08:08:01.131Z,-2.22
2018-03-03T08:09:01.110Z,-2.13
2018-03-03T08:10:01.074Z,-2.05
2018-03-03T08:11:01.038Z,-2.26
2018-03-03T08:12:01.051Z,-2.40
2018-03-03T08:13:00.987Z,-2.22
2018-03-03T08:14:00.959Z,-1.99
2018-03-03T08:15:00.980Z,-2.11
2018-03-03T08:16:00.891Z,-2.11
2018-03-03T08:17:00.863Z,-2.22
2018-03-03T08:18:00.842Z,-2.11
2018-03-03T08:19:00.808Z,-2.15
2018-03-03T08:20:00.772Z,-2.07
2018-03-03T08:21:00.762Z,-1.90
2018-03-03T08:22:00.727Z,-1.97
2018-03-03T08:23:00.688Z,-2.17
2018-03-03T08:24:00.656Z,-2.39
2018-03-03T08:25:00.688Z,-2.23
2018-03-03T08:26:00.608Z,-2.33
2018-03-03T08:27:00.572Z,-2.02
2018-03-03T08:28:00.538Z,-1.92
2018-03-03T08:29:00.511Z,-1.84
2018-03-03T08:30:00.481Z,-1.97
2018-03-03T08:31:00.459Z,-2.14
2018-03-03T08:32:00.439Z,-1.97
2018-03-03T08:33:00.397Z,-2.11
2018-03-03T08:34:00.367Z,-1.97
2018-03-03T08:35:00.336Z,-1.89
2018-03-03T08:36:00.322Z,-1.86
2018-03-03T08:37:00.275Z,-1.81
2018-03-03T08:38:00.246Z,-1.69
2018-03-03T08:39:00.216Z,-1.54
2018-03-03T08:40:00.188Z,-1.53
2018-03-03T08:41:00.163Z,-1.43
2018-03-03T08:42:00.130Z,-1.30
2018-03-03T08:43:00.102Z,-1.42
2018-03-03T08:44:00.070Z,-1.19
2018-03-03T08:45:00.041Z,-1.36
2018-03-03T08:46:00.015Z,-1.21
2018-03-03T08:46:59.984Z,-1.14
2018-03-03T08:47:59.964Z,-1.38
2018-03-03T08:48:59.926Z,-1.22
2018-03-03T08:50:00.012Z,-1.11
2018-03-03T08:50:59.868Z,-0.89
2018-03-03T08:51:59.847Z,-0.69
2018-03-03T08:52:59.821Z,-0.42
2018-03-03T08:53:59.785Z,-0.20
2018-03-03T08:54:59.757Z,-0.21
2018-03-03T08:55:59.725Z,0.18
2018-03-03T08:56:59.699Z,0.26
2018-03-03T08:57:59.675Z,0.08
2018-03-03T08:58:59.666Z,0.19
2018-03-03T08:59:59.617Z,0.49
2018-03-03T09:00:59.590Z,0.89
2018-03-03T09:01:59.564Z,0.37
2018-03-03T09:02:59.533Z,0.24
2018-03-03T09:03:59.524Z,0.27
2018-03-03T09:04:59.492Z,0.51
2018-03-03T09:05:59.454Z,0.73
2018-03-03T09:06:59.431Z,1.20
2018-03-03T09:07:59.409Z,1.71
2018-03-03T09:08:59.373Z,1.04
2018-03-03T09:09:59.350Z,0.76
2018-03-03T09:10:59.331Z,0.61
2018-03-03T09:11:59.301Z,0.36
2018-03-03T09:12:59.274Z,0.42
2018-03-03T09:13:59.251Z,0.84
2018-03-03T09:14:59.232Z,0.78
2018-03-03T09:15:59.198Z,0.67
2018-03-03T09:16:59.172Z,1.16
2018-03-03T09:17:59.146Z,1.25
2018-03-03T09:18:59.146Z,1.34
2018-03-03T09:19:59.099Z,1.13
2018-03-03T09:20:59.073Z,1.04
2018-03-03T09:21:59.051Z,1.30
2018-03-03T09:22:59.022Z,1.43
2018-03-03T09:23:59.000Z,1.49
2018-03-03T09:24:58.975Z,2.01
2018-03-03T09:25:59.040Z,2.16
2018-03-03T09:26:58.922Z,2.25
2018-03-03T09:27:58.902Z,2.03
2018-03-03T09:28:58.874Z,2.55
2018-03-03T09:29:58.850Z,2.83
2018-03-03T09:30:58.830Z,2.95
2018-03-03T09:31:58.805Z,2.34
2018-03-03T09:32:58.919Z,2.34
2018-03-03T09:33:58.758Z,2.57
2018-03-03T09:34:58.740Z,2.32
2018-03-03T09:35:58.708Z,2.90
2018-03-03T09:36:58.697Z,2.80
2018-03-03T09:37:58.667Z,2.95
2018-03-03T09:38:58.638Z,2.93
2018-03-03T09:39:58.617Z,3.11
2018-03-03T09:40:58.602Z,2.37
2018-03-03T09:41:58.576Z,1.85
2018-03-03T09:42:58.556Z,2.19
2018-03-03T09:43:58.528Z,2.55
2018-03-03T09:44:58.524Z,1.88
2018-03-03T09:45:58.485Z,2.18
2018-03-03T09:46:58.458Z,2.32
2018-03-03T09:47:58.497Z,1.95
2018-03-03T09:48:58.417Z,2.40
2018-03-03T09:49:58.397Z,2.73
2018-03-03T09:50:58.372Z,2.72
2018-03-03T09:51:58.349Z,2.37
2018-03-03T09:52:58.325Z,2.68
2018-03-03T09:53:58.306Z,3.06
2018-03-03T09:54:58.281Z,3.40
2018-03-03T09:55:58.282Z,2.95
2018-03-03T09:56:58.239Z,2.58
2018-03-03T09:57:58.256Z,2.68
2018-03-03T09:58:58.196Z,2.28
2018-03-03T09:59:58.180Z,2.51
2018-03-03T10:00:58.161Z,2.37
2018-03-03T10:02:05.921Z,1.79
2018-03-03T10:02:58.108Z,1.58
2018-03-03T10:03:58.085Z,1.68
2018-03-03T10:04:58.066Z,2.04
2018-03-03T10:05:58.047Z,2.23
2018-03-03T10:06:58.023Z,2.28
2018-03-03T10:07:58.014Z,2.72
2018-03-03T10:08:57.978Z,3.16
2018-03-03T10:09:57.956Z,3.56
2018-03-03T10:10:58.072Z,3.30
2018-03-03T10:11:57.920Z,2.62
2018-03-03T10:12:57.902Z,2.46
2018-03-03T10:13:57.902Z,2.76
2018-03-03T10:14:57.846Z,3.40
2018-03-03T10:15:57.827Z,3.74
2018-03-03T10:16:57.803Z,3.95
2018-03-03T10:17:57.782Z,4.25
2018-03-03T10:18:57.759Z,3.64
2018-03-03T10:19:57.737Z,3.37
2018-03-03T10:20:57.714Z,3.66
2018-03-03T10:21:57.726Z,3.43
2018-03-03T10:22:57.672Z,3.33
2018-03-03T10:23:57.648Z,3.43
2018-03-03T10:24:57.635Z,4.27
2018-03-03T10:25:57.611Z,4.52
2018-03-03T10:26:57.586Z,4.30
2018-03-03T10:27:57.573Z,4.20
2018-03-03T10:28:57.546Z,3.63
2018-03-03T10:29:57.527Z,3.91
2018-03-03T10:30:57.501Z,4.27
2018-03-03T10:31:57.481Z,4.52
2018-03-03T10:32:57.464Z,4.60
2018-03-03T10:33:57.439Z,3.77
2018-03-03T10:34:57.420Z,2.46
2018-03-03T10:35:57.405Z,2.04
2018-03-03T10:36:57.483Z,2.00
2018-03-03T10:37:57.378Z,2.28
2018-03-03T10:38:57.346Z,2.23
2018-03-03T10:39:57.310Z,2.22
2018-03-03T10:40:57.290Z,2.30
2018-03-03T10:41:57.279Z,2.15
2018-03-03T10:42:57.255Z,1.81
2018-03-03T10:43:57.221Z,1.97
2018-03-03T10:44:57.205Z,1.68
2018-03-03T10:45:57.179Z,1.67
2018-03-03T10:46:57.154Z,1.68
2018-03-03T10:47:57.130Z,1.71
2018-03-03T10:48:57.114Z,2.01
2018-03-03T10:49:57.099Z,2.25
2018-03-03T10:50:57.063Z,2.15
2018-03-03T10:51:57.051Z,2.01
2018-03-03T10:52:57.027Z,2.00
2018-03-03T10:53:57.004Z,1.95
2018-03-03T10:54:56.968Z,1.68
2018-03-03T10:55:56.949Z,1.79
2018-03-03T10:56:56.918Z,1.74
2018-03-03T10:57:56.898Z,1.61
2018-03-03T10:58:56.870Z,1.60
2018-03-03T10:59:56.848Z,1.57
2018-03-03T11:00:56.819Z,1.43
2018-03-03T11:01:56.798Z,1.43
2018-03-03T11:02:56.772Z,1.70
2018-03-03T11:03:56.833Z,1.66
2018-03-03T11:04:56.720Z,1.75
2018-03-03T11:05:56.697Z,1.66
2018-03-03T11:06:56.674Z,1.67
2018-03-03T11:07:56.701Z,1.74
2018-03-03T11:08:56.624Z,1.61
2018-03-03T11:09:56.596Z,1.53
2018-03-03T11:10:56.569Z,1.67
2018-03-03T11:11:56.547Z,1.78
2018-03-03T11:12:56.524Z,1.57
2018-03-03T11:13:56.497Z,1.28
2018-03-03T11:14:56.470Z,1.28
2018-03-03T11:15:56.453Z,1.49
2018-03-03T11:16:56.416Z,1.67
2018-03-03T11:17:56.395Z,1.56
2018-03-03T11:18:56.375Z,1.58
2018-03-03T11:19:56.344Z,1.45
2018-03-03T11:20:56.324Z,1.43
2018-03-03T11:21:56.297Z,1.57
2018-03-03T11:22:56.271Z,1.64
2018-03-03T11:23:56.248Z,1.63
2018-03-03T11:24:56.214Z,1.67
2018-03-03T11:25:56.191Z,1.32
2018-03-03T11:26:56.164Z,1.31
2018-03-03T11:27:56.136Z,1.40
2018-03-03T11:28:56.143Z,1.68
2018-03-03T11:29:56.084Z,1.67
2018-03-03T11:30:56.057Z,1.70
2018-03-03T11:31:56.033Z,1.97
2018-03-03T11:32:56.005Z,1.85
2018-03-03T11:33:55.980Z,1.89
2018-03-03T11:34:55.961Z,1.98
2018-03-03T11:35:56.034Z,2.10
2018-03-03T11:36:55.901Z,1.75
2018-03-03T11:37:55.893Z,1.52
2018-03-03T11:38:55.851Z,1.78
2018-03-03T11:39:55.826Z,2.16
2018-03-03T11:40:55.810Z,2.23
2018-03-03T11:41:55.798Z,1.71
2018-03-03T11:42:55.761Z,1.71
2018-03-03T11:43:55.732Z,1.66
2018-03-03T11:44:55.701Z,1.88
2018-03-03T11:45:55.686Z,2.21
2018-03-03T11:46:55.650Z,2.40
2018-03-03T11:47:55.625Z,2.33
2018-03-03T11:48:55.600Z,2.30
2018-03-03T11:49:55.576Z,2.34
2018-03-03T11:50:55.560Z,1.92
2018-03-03T11:51:55.530Z,2.00
2018-03-03T11:52:55.507Z,2.00
2018-03-03T11:53:55.474Z,1.97
2018-03-03T11:54:55.467Z,1.88
2018-03-03T11:55:55.426Z,1.82
2018-03-03T11:56:55.398Z,1.86
2018-03-03T11:57:55.378Z,1.85
2018-03-03T11:58:55.401Z,2.00
2018-03-03T11:59:55.324Z,2.25
2018-03-03T12:00:55.299Z,2.39
2018-03-03T12:01:55.285Z,2.51
2018-03-03T12:02:55.248Z,2.47
2018-03-03T12:03:55.230Z,2.39
2018-03-03T12:04:55.205Z,2.18
2018-03-03T12:05:55.174Z,1.76
2018-03-03T12:06:55.153Z,1.82
2018-03-03T12:07:55.149Z,1.43
2018-03-03T12:08:55.114Z,1.32
2018-03-03T12:09:55.078Z,1.56
2018-03-03T12:10:55.054Z,1.67
2018-03-03T12:11:55.027Z,1.71
2018-03-03T12:12:55.000Z,1.50
2018-03-03T12:13:54.978Z,1.67
2018-03-03T12:14:55.084Z,1.68
2018-03-03T12:15:54.930Z,1.78
2018-03-03T12:16:54.906Z,1.79
2018-03-03T12:17:54.886Z,1.95
2018-03-03T12:18:54.861Z,1.79
2018-03-03T12:19:54.824Z,1.75
2018-03-03T12:20:54.808Z,1.81
2018-03-03T12:21:54.780Z,1.85
2018-03-03T12:22:54.745Z,1.67
2018-03-03T12:23:54.724Z,1.68
2018-03-03T12:24:54.699Z,1.75
2018-03-03T12:25:54.683Z,1.82
2018-03-03T12:26:54.709Z,1.81
2018-03-03T12:27:54.621Z,1.78
2018-03-03T12:28:54.624Z,2.03
2018-03-03T12:29:54.576Z,1.82
2018-03-03T12:30:54.539Z,1.74
2018-03-03T12:31:54.520Z,1.70
2018-03-03T12:32:54.492Z,1.71
2018-03-03T12:33:54.472Z,1.86
2018-03-03T12:34:54.447Z,1.56
2018-03-03T12:35:54.415Z,1.64
2018-03-03T12:36:54.389Z,1.78
2018-03-03T12:37:54.367Z,1.78
2018-03-03T12:38:54.343Z,1.67
2018-03-03T12:39:54.317Z,1.71
2018-03-03T12:40:54.286Z,1.93
2018-03-03T12:41:54.258Z,2.15
2018-03-03T12:42:54.242Z,2.34
2018-03-03T12:43:54.208Z,1.86
2018-03-03T12:44:54.183Z,1.71
2018-03-03T12:45:54.156Z,1.70
2018-03-03T12:46:54.137Z,1.71
2018-03-03T12:47:54.113Z,1.75
2018-03-03T12:48:54.083Z,1.71
2018-03-03T12:49:54.073Z,1.52
2018-03-03T12:50:54.030Z,1.48
2018-03-03T12:51:54.003Z,1.75
2018-03-03T12:52:54.150Z,1.78
2018-03-03T12:53:53.952Z,1.97
2018-03-03T12:54:53.925Z,1.86
2018-03-03T12:55:53.987Z,1.57
2018-03-03T12:56:53.878Z,1.67
2018-03-03T12:57:53.855Z,1.86
2018-03-03T12:58:53.828Z,2.01
2018-03-03T12:59:53.794Z,1.97